createdAt,value
2018-09-26T00:00:22.185Z,21.2
2018-09-26T00:01:12.205Z,21.2
2018-09-26T00:02:01.725Z,21.2
2018-09-26T00:02:51.811Z,21.2
2018-09-26T00:03:41.851Z,21.3
2018-09-26T00:04:31.621Z,21.2
2018-09-26T00:05:22.273Z,21.2
2018-09-26T00:06:12.075Z,21.2
2018-09-26T00:07:02.657Z,21.2
2018-09-26T00:07:52.632Z,21.2
2018-09-26T00:08:42.199Z,21.2
2018-09-26T00:09:33.115Z,21.2
2018-09-26T00:10:22.295Z,21.2
2018-09-26T00:11:12.436Z,21.2
2018-09-26T00:12:02.909Z,21.2
2018-09-26T00:12:52.465Z,21.2
2018-09-26T00:13:42.592Z,21.2
2018-09-26T00:14:32.895Z,21.2
2018-09-26T00:15:23.267Z,21.2
2018-09-26T00:16:13.082Z,21.2
2018-09-26T00:17:02.532Z,21.2
2018-09-26T00:17:52.834Z,21.2
2018-09-26T00:18:43.044Z,21.2
2018-09-26T00:19:33.566Z,21.2
2018-09-26T00:22:02.932Z,21.2
2018-09-26T00:55:27.826Z,21.1
2018-09-26T00:56:18.313Z,21.1
2018-09-26T00:57:07.075Z,21.1
2018-09-26T00:57:58.229Z,21
2018-09-26T00:58:47.459Z,21.1
2018-09-26T00:59:38.075Z,21
2018-09-26T01:00:29.940Z,21.1
2018-09-26T01:01:18.984Z,21
2018-09-26T01:02:08.524Z,21.1
2018-09-26T01:02:58.319Z,21.1
2018-09-26T01:03:49.194Z,21
2018-09-26T01:04:38.387Z,21
2018-09-26T01:05:29.665Z,21
2018-09-26T01:06:18.292Z,21.1
2018-09-26T01:07:08.672Z,21
2018-09-26T01:07:59.214Z,21
2018-09-26T01:08:49.277Z,21.1
2018-09-26T01:09:39.351Z,21
2018-09-26T01:10:29.118Z,21
2018-09-26T01:11:19.786Z,21
2018-09-26T01:12:09.374Z,21
2018-09-26T01:12:59.089Z,21
2018-09-26T01:13:49.323Z,21
2018-09-26T01:14:39.723Z,21
2018-09-26T01:15:29.457Z,21
2018-09-26T01:16:20.448Z,21
2018-09-26T01:17:09.955Z,21
2018-09-26T01:17:59.692Z,21
2018-09-26T01:18:50.056Z,21
2018-09-26T01:19:40.096Z,21
2018-09-26T01:20:30.361Z,21
2018-09-26T01:21:19.359Z,21
2018-09-26T01:22:10.566Z,21
2018-09-26T01:23:00.068Z,21
2018-09-26T01:23:50.093Z,21
2018-09-26T01:24:40.711Z,21
2018-09-26T01:25:30.554Z,21
2018-09-26T01:26:20.676Z,21
2018-09-26T01:27:10.373Z,20.9
2018-09-26T01:28:00.483Z,21
2018-09-26T01:28:50.455Z,21
2018-09-26T01:29:41.088Z,21
2018-09-26T01:30:30.635Z,21
2018-09-26T01:31:21.492Z,21
2018-09-26T01:32:11.212Z,20.9
2018-09-26T01:32:59.967Z,20.9
2018-09-26T01:33:50.860Z,20.9
2018-09-26T01:34:40.871Z,20.9
2018-09-26T01:35:31.252Z,20.9
2018-09-26T01:36:21.600Z,20.9
2018-09-26T01:37:12.013Z,21
2018-09-26T01:38:01.190Z,20.9
2018-09-26T01:38:51.230Z,20.9
2018-09-26T01:39:41.570Z,20.9
2018-09-26T01:40:30.805Z,20.9
2018-09-26T01:41:21.094Z,20.9
2018-09-26T01:42:12.050Z,20.9
2018-09-26T01:43:02.115Z,20.9
2018-09-26T01:43:51.322Z,20.9
2018-09-26T01:44:40.847Z,20.9
2018-09-26T01:45:31.436Z,20.9
2018-09-26T01:46:21.771Z,20.9
2018-09-26T01:47:12.072Z,20.9
2018-09-26T01:48:01.428Z,20.9
2018-09-26T01:48:52.258Z,20.9
2018-09-26T01:49:42.027Z,20.9
2018-09-26T01:50:32.333Z,20.9
2018-09-26T01:51:22.151Z,20.9
2018-09-26T01:52:12.423Z,20.9
2018-09-26T01:53:02.304Z,20.9
2018-09-26T01:53:52.466Z,20.9
2018-09-26T01:54:42.670Z,20.9
2018-09-26T01:55:32.779Z,20.9
2018-09-26T01:56:21.687Z,20.9
2018-09-26T01:57:12.939Z,20.9
2018-09-26T01:58:02.999Z,20.9
2018-09-26T01:58:53.000Z,20.9
2018-09-26T01:59:43.076Z,20.9
2018-09-26T02:00:32.818Z,20.9
2018-09-26T02:01:23.468Z,20.9
2018-09-26T02:02:13.011Z,20.9
2018-09-26T02:03:03.573Z,20.9
2018-09-26T02:03:53.098Z,20.9
2018-09-26T02:04:42.903Z,20.9
2018-09-26T02:05:32.668Z,20.9
2018-09-26T02:06:23.266Z,20.9
2018-09-26T02:07:13.578Z,20.9
2018-09-26T02:08:03.950Z,20.9
2018-09-26T02:08:53.495Z,20.9
2018-09-26T02:09:43.513Z,20.9
2018-09-26T02:10:33.864Z,20.9
2018-09-26T02:11:22.812Z,20.9
2018-09-26T02:12:13.995Z,20.9
2018-09-26T02:13:03.716Z,20.9
2018-09-26T02:13:54.575Z,20.9
2018-09-26T02:14:44.406Z,20.9
2018-09-26T02:15:34.525Z,20.9
2018-09-26T02:16:24.248Z,20.9
2018-09-26T02:17:13.790Z,20.9
2018-09-26T02:18:03.900Z,20.9
2018-09-26T02:18:53.961Z,20.8
2018-09-26T02:19:44.524Z,20.9
2018-09-26T02:20:34.044Z,20.8
2018-09-26T02:21:24.642Z,20.9
2018-09-26T02:22:15.004Z,20.8
2018-09-26T02:23:03.950Z,20.8
2018-09-26T02:23:54.848Z,20.9
2018-09-26T02:24:45.167Z,20.9
2018-09-26T02:25:34.653Z,20.8
2018-09-26T02:26:25.295Z,20.8
2018-09-26T02:27:15.069Z,20.8
2018-09-26T02:28:04.614Z,20.8
2018-09-26T02:28:55.852Z,20.8
2018-09-26T02:29:45.235Z,20.8
2018-09-26T02:30:34.824Z,20.8
2018-09-26T02:31:24.565Z,20.8
2018-09-26T02:32:14.626Z,20.8
2018-09-26T02:33:05.574Z,20.8
2018-09-26T02:33:55.621Z,20.8
2018-09-26T02:34:45.639Z,20.8
2018-09-26T02:35:35.985Z,20.8
2018-09-26T02:36:25.459Z,20.8
2018-09-26T02:37:16.084Z,20.8
2018-09-26T02:38:06.120Z,20.8
2018-09-26T02:38:55.896Z,20.8
2018-09-26T02:39:46.375Z,20.8
2018-09-26T02:40:35.786Z,20.8
2018-09-26T02:41:25.321Z,20.8
2018-09-26T02:42:15.608Z,20.8
2018-09-26T02:43:05.188Z,20.8
2018-09-26T02:43:56.383Z,20.8
2018-09-26T02:44:46.356Z,20.8
2018-09-26T02:45:36.471Z,20.8
2018-09-26T02:46:26.773Z,20.8
2018-09-26T02:47:16.288Z,20.8
2018-09-26T02:48:06.659Z,20.8
2018-09-26T02:48:56.678Z,20.8
2018-09-26T02:49:46.520Z,20.8
2018-09-26T02:50:36.519Z,20.8
2018-09-26T02:51:26.553Z,20.8
2018-09-26T02:52:16.628Z,20.8
2018-09-26T02:53:07.258Z,20.8
2018-09-26T02:53:57.357Z,20.8
2018-09-26T02:54:46.288Z,20.8
2018-09-26T02:55:37.305Z,20.8
2018-09-26T02:56:26.688Z,20.8
2018-09-26T02:57:17.620Z,20.8
2018-09-26T02:58:06.595Z,20.8
2018-09-26T02:58:56.866Z,20.8
2018-09-26T02:59:47.547Z,20.8
2018-09-26T03:00:37.599Z,20.8
2018-09-26T03:01:26.747Z,20.8
2018-09-26T03:02:17.719Z,20.8
2018-09-26T03:03:07.447Z,20.8
2018-09-26T03:03:58.700Z,20.8
2018-09-26T03:04:47.564Z,20.8
2018-09-26T03:05:37.957Z,20.8
2018-09-26T03:06:27.452Z,20.8
2018-09-26T03:07:17.495Z,20.8
2018-09-26T03:08:07.547Z,20.8
2018-09-26T03:08:57.905Z,20.8
2018-09-26T03:09:48.197Z,20.8
2018-09-26T03:10:37.775Z,20.8
2018-09-26T03:11:27.794Z,20.8
2018-09-26T03:12:17.539Z,20.8
2018-09-26T03:13:07.929Z,20.8
2018-09-26T03:13:59.316Z,20.8
2018-09-26T03:14:48.649Z,20.8
2018-09-26T03:15:39.042Z,20.8
2018-09-26T03:16:27.607Z,20.8
2018-09-26T03:17:18.214Z,20.8
2018-09-26T03:18:08.531Z,20.8
2018-09-26T03:18:59.231Z,20.8
2018-09-26T03:19:49.026Z,20.8
2018-09-26T03:20:39.064Z,20.8
2018-09-26T03:21:28.781Z,20.8
2018-09-26T03:22:19.440Z,20.8
2018-09-26T03:23:08.638Z,20.8
2018-09-26T03:23:59.249Z,20.8
2018-09-26T03:24:49.771Z,20.8
2018-09-26T03:25:39.680Z,20.8
2018-09-26T03:26:29.163Z,20.8
2018-09-26T03:27:19.518Z,20.8
2018-09-26T03:28:09.846Z,20.8
2018-09-26T03:28:58.616Z,20.8
2018-09-26T03:29:49.224Z,20.8
2018-09-26T03:30:39.118Z,20.8
2018-09-26T03:31:28.788Z,20.8
2018-09-26T03:32:18.949Z,20.8
2018-09-26T03:33:08.915Z,20.8
2018-09-26T03:33:59.466Z,20.8
2018-09-26T03:34:49.294Z,20.8
2018-09-26T03:35:40.083Z,20.8
2018-09-26T03:36:30.448Z,20.8
2018-09-26T03:37:20.536Z,20.8
2018-09-26T03:38:09.746Z,20.8
2018-09-26T03:39:00.387Z,20.8
2018-09-26T03:39:49.869Z,20.8
2018-09-26T03:40:40.215Z,20.8
2018-09-26T03:41:30.843Z,20.8
2018-09-26T03:42:20.359Z,20.8
2018-09-26T03:43:10.415Z,20.8
2018-09-26T03:44:01.027Z,20.8
2018-09-26T03:44:50.510Z,20.8
2018-09-26T03:45:40.289Z,20.8
2018-09-26T03:46:30.988Z,20.8
2018-09-26T03:47:21.315Z,20.8
2018-09-26T03:48:11.026Z,20.8
2018-09-26T03:49:00.809Z,20.8
2018-09-26T03:49:50.346Z,20.8
2018-09-26T03:50:41.494Z,20.8
2018-09-26T03:51:31.254Z,20.8
2018-09-26T03:52:21.116Z,20.8
2018-09-26T03:53:11.439Z,20.8
2018-09-26T03:54:01.179Z,20.8
2018-09-26T03:54:50.938Z,20.8
2018-09-26T03:55:41.802Z,20.8
2018-09-26T03:56:31.737Z,20.8
2018-09-26T03:57:21.751Z,20.8
2018-09-26T03:58:11.760Z,20.8
2018-09-26T03:59:01.868Z,20.8
2018-09-26T03:59:51.295Z,20.8
2018-09-26T04:00:41.088Z,20.8
2018-09-26T04:01:32.568Z,20.8
2018-09-26T04:02:22.123Z,20.8
2018-09-26T04:03:11.893Z,20.8
2018-09-26T04:04:02.569Z,20.8
2018-09-26T04:04:52.460Z,20.8
2018-09-26T04:05:42.891Z,20.8
2018-09-26T04:06:31.914Z,20.8
2018-09-26T04:07:22.430Z,20.8
2018-09-26T04:08:12.200Z,20.8
2018-09-26T04:09:02.661Z,20.8
2018-09-26T04:09:52.655Z,20.8
2018-09-26T04:10:42.463Z,20.8
2018-09-26T04:11:32.197Z,20.8
2018-09-26T04:12:22.795Z,20.8
2018-09-26T04:13:13.962Z,20.8
2018-09-26T04:14:03.235Z,20.8
2018-09-26T04:14:52.760Z,20.8
2018-09-26T04:15:43.780Z,20.8
2018-09-26T04:16:33.161Z,20.8
2018-09-26T04:17:22.908Z,20.8
2018-09-26T04:18:13.003Z,20.8
2018-09-26T04:19:03.311Z,20.7
2018-09-26T04:19:53.140Z,20.8
2018-09-26T04:20:43.232Z,20.7
2018-09-26T04:21:32.640Z,20.7
2018-09-26T04:22:23.920Z,20.7
2018-09-26T04:23:13.315Z,20.7
2018-09-26T04:24:03.155Z,20.7
2018-09-26T04:24:52.906Z,20.7
2018-09-26T04:25:44.052Z,20.7
2018-09-26T04:26:35.269Z,20.7
2018-09-26T04:27:25.581Z,20.7
2018-09-26T04:28:13.787Z,20.7
2018-09-26T04:29:04.131Z,20.7
2018-09-26T04:29:54.745Z,20.7
2018-09-26T04:30:44.599Z,20.7
2018-09-26T04:31:34.792Z,20.7
2018-09-26T04:32:23.816Z,20.7
2018-09-26T04:33:19.187Z,20.7
2018-09-26T04:34:05.206Z,20.7
2018-09-26T04:34:54.489Z,20.7
2018-09-26T04:35:44.827Z,20.7
2018-09-26T04:36:35.081Z,20.7
2018-09-26T04:37:25.008Z,20.7
2018-09-26T04:38:13.898Z,20.7
2018-09-26T04:39:04.305Z,20.7
2018-09-26T04:39:54.828Z,20.7
2018-09-26T04:40:43.754Z,20.7
2018-09-26T04:41:35.483Z,20.7
2018-09-26T04:42:24.726Z,20.7
2018-09-26T04:43:15.987Z,20.7
2018-09-26T04:44:04.590Z,20.7
2018-09-26T04:44:54.936Z,20.7
2018-09-26T04:45:44.691Z,20.7
2018-09-26T04:46:35.611Z,20.6
2018-09-26T04:47:25.411Z,20.7
2018-09-26T04:48:15.716Z,20.6
2018-09-26T04:49:05.542Z,20.6
2018-09-26T04:49:55.890Z,20.6
2018-09-26T04:50:45.773Z,20.7
2018-09-26T04:51:35.111Z,20.6
2018-09-26T04:52:25.456Z,20.6
2018-09-26T04:53:16.020Z,20.7
2018-09-26T04:54:06.225Z,20.6
2018-09-26T04:54:55.935Z,20.6
2018-09-26T04:55:46.243Z,20.6
2018-09-26T04:56:36.063Z,20.6
2018-09-26T04:57:26.623Z,20.6
2018-09-26T04:58:17.143Z,20.7
2018-09-26T04:59:06.013Z,20.6
2018-09-26T04:59:55.424Z,20.6
2018-09-26T05:00:46.190Z,20.6
2018-09-26T05:01:36.131Z,20.6
2018-09-26T05:02:26.007Z,20.6
2018-09-26T05:03:15.763Z,20.6
2018-09-26T05:04:06.085Z,20.6
2018-09-26T05:04:55.680Z,20.6
2018-09-26T05:05:46.310Z,20.6
2018-09-26T05:06:35.720Z,20.6
2018-09-26T05:07:26.896Z,20.6
2018-09-26T05:24:19.074Z,20.6
2018-09-26T05:25:08.374Z,20.6
2018-09-26T05:25:58.259Z,20.6
2018-09-26T05:26:48.251Z,20.6
2018-09-26T05:27:38.606Z,20.6
2018-09-26T05:28:28.706Z,20.6
2018-09-26T05:29:18.856Z,20.6
2018-09-26T05:30:08.198Z,20.6
2018-09-26T05:30:58.571Z,20.6
2018-09-26T05:31:48.886Z,20.6
2018-09-26T05:32:38.719Z,20.6
2018-09-26T05:33:28.522Z,20.6
2018-09-26T05:34:19.111Z,20.6
2018-09-26T05:35:09.666Z,20.6
2018-09-26T05:35:58.829Z,20.6
2018-09-26T05:36:49.283Z,20.6
2018-09-26T05:37:39.583Z,20.6
2018-09-26T05:38:29.104Z,20.6
2018-09-26T05:39:19.679Z,20.6
2018-09-26T05:40:09.518Z,20.6
2018-09-26T05:40:58.936Z,20.6
2018-09-26T05:41:50.851Z,20.6
2018-09-26T05:42:39.618Z,20.6
2018-09-26T05:43:30.015Z,20.6
2018-09-26T05:44:19.237Z,20.6
2018-09-26T05:45:10.445Z,20.6
2018-09-26T05:46:00.497Z,20.6
2018-09-26T05:46:50.434Z,20.6
2018-09-26T05:47:40.375Z,20.6
2018-09-26T05:48:29.558Z,20.6
2018-09-26T05:49:20.488Z,20.6
2018-09-26T05:50:09.944Z,20.6
2018-09-26T05:51:00.920Z,20.6
2018-09-26T05:51:49.797Z,20.6
2018-09-26T05:52:40.960Z,20.6
2018-09-26T05:53:31.153Z,20.6
2018-09-26T05:54:20.535Z,20.6
2018-09-26T05:55:11.135Z,20.6
2018-09-26T05:56:00.862Z,20.6
2018-09-26T05:56:50.692Z,20.6
2018-09-26T05:57:40.527Z,20.6
2018-09-26T05:58:30.015Z,20.6
2018-09-26T05:59:21.609Z,20.6
2018-09-26T06:00:11.873Z,20.6
2018-09-26T06:01:02.471Z,20.6
2018-09-26T06:01:52.572Z,20.6
2018-09-26T06:02:41.492Z,20.6
2018-09-26T06:03:30.629Z,20.6
2018-09-26T06:04:21.510Z,20.6
2018-09-26T06:05:11.417Z,20.6
2018-09-26T06:06:01.696Z,20.6
2018-09-26T06:06:51.534Z,20.6
2018-09-26T06:07:41.251Z,20.6
2018-09-26T06:08:31.084Z,20.6
2018-09-26T06:09:21.918Z,20.6
2018-09-26T06:10:11.977Z,20.6
2018-09-26T06:11:02.027Z,20.6
2018-09-26T06:11:51.553Z,20.6
2018-09-26T06:12:42.740Z,20.6
2018-09-26T06:13:32.208Z,20.6
2018-09-26T06:14:22.281Z,20.6
2018-09-26T06:15:13.062Z,20.7
2018-09-26T06:16:02.711Z,20.6
2018-09-26T06:16:53.225Z,20.7
2018-09-26T06:17:42.353Z,20.7
2018-09-26T06:18:32.899Z,20.7
2018-09-26T06:19:22.345Z,20.7
2018-09-26T06:20:11.610Z,20.7
2018-09-26T06:21:01.621Z,20.7
2018-09-26T06:21:53.327Z,20.7
2018-09-26T06:22:42.891Z,20.7
2018-09-26T06:23:32.650Z,20.7
2018-09-26T06:24:23.018Z,20.7
2018-09-26T06:25:12.865Z,20.7
2018-09-26T06:26:02.938Z,20.7
2018-09-26T06:26:52.481Z,20.7
2018-09-26T06:27:43.588Z,20.7
2018-09-26T06:28:32.215Z,20.7
2018-09-26T06:29:23.367Z,20.7
2018-09-26T06:30:13.317Z,20.8
2018-09-26T06:31:03.287Z,20.7
2018-09-26T06:31:52.997Z,20.8
2018-09-26T06:32:43.579Z,20.8
2018-09-26T06:33:33.934Z,20.8
2018-09-26T06:34:23.177Z,20.8
2018-09-26T06:35:13.712Z,20.8
2018-09-26T06:36:03.924Z,20.8
2018-09-26T06:36:53.650Z,20.8
2018-09-26T06:37:43.734Z,20.8
2018-09-26T06:38:33.729Z,20.8
2018-09-26T06:39:24.421Z,20.8
2018-09-26T06:40:14.175Z,20.8
2018-09-26T06:41:03.108Z,20.8
2018-09-26T06:41:54.342Z,20.8
2018-09-26T06:42:44.121Z,20.8
2018-09-26T06:43:34.167Z,20.8
2018-09-26T06:44:24.209Z,20.8
2018-09-26T06:45:14.536Z,20.8
2018-09-26T06:46:04.286Z,20.8
2018-09-26T06:46:54.944Z,20.8
2018-09-26T06:47:44.888Z,20.8
2018-09-26T06:48:33.691Z,20.8
2018-09-26T06:49:24.835Z,20.8
2018-09-26T06:50:14.958Z,20.8
2018-09-26T06:51:05.221Z,20.8
2018-09-26T06:51:54.751Z,20.8
2018-09-26T06:52:45.414Z,20.8
2018-09-26T06:53:35.449Z,20.8
2018-09-26T06:54:25.242Z,20.8
2018-09-26T06:55:15.494Z,20.8
2018-09-26T06:56:05.557Z,20.8
2018-09-26T06:56:54.880Z,20.8
2018-09-26T06:57:44.972Z,20.8
2018-09-26T06:58:35.490Z,20.8
2018-09-26T06:59:25.865Z,20.8
2018-09-26T07:00:16.537Z,20.8
2018-09-26T07:01:05.669Z,20.8
2018-09-26T07:01:55.470Z,20.8
2018-09-26T07:02:45.586Z,20.8
2018-09-26T07:03:35.302Z,20.8
2018-09-26T07:04:25.904Z,20.8
2018-09-26T07:05:16.075Z,20.8
2018-09-26T07:06:06.086Z,20.8
2018-09-26T07:06:56.428Z,20.8
2018-09-26T07:07:46.134Z,20.8
2018-09-26T07:08:35.685Z,20.8
2018-09-26T07:09:25.985Z,20.7
2018-09-26T07:10:16.357Z,20.7
2018-09-26T07:11:06.972Z,20.6
2018-09-26T07:11:55.625Z,20.6
2018-09-26T07:12:46.509Z,20.6
2018-09-26T07:13:36.674Z,20.6
2018-09-26T07:14:26.410Z,20.6
2018-09-26T07:15:17.067Z,20.6
2018-09-26T07:16:07.045Z,20.6
2018-09-26T07:16:56.034Z,20.6
2018-09-26T07:17:47.460Z,20.5
2018-09-26T07:18:37.269Z,20.5
2018-09-26T07:19:26.454Z,20.4
2018-09-26T07:20:16.835Z,20.4
2018-09-26T07:21:07.205Z,20.4
2018-09-26T07:21:56.674Z,20.4
2018-09-26T07:22:47.017Z,20.4
2018-09-26T07:23:37.111Z,20.4
2018-09-26T07:24:26.824Z,20.3
2018-09-26T07:25:17.472Z,20.3
2018-09-26T07:26:06.986Z,20.3
2018-09-26T07:26:57.337Z,20.3
2018-09-26T07:27:47.939Z,20.3
2018-09-26T07:28:37.201Z,20.3
2018-09-26T07:29:27.447Z,20.3
2018-09-26T07:30:18.052Z,20.2
2018-09-26T07:31:08.167Z,20.2
2018-09-26T07:31:57.991Z,20.2
2018-09-26T07:32:48.099Z,20.1
2018-09-26T07:33:37.751Z,20.1
2018-09-26T07:34:28.414Z,20.1
2018-09-26T07:35:17.934Z,20.1
2018-09-26T07:36:08.051Z,20.1
2018-09-26T07:36:58.589Z,20.1
2018-09-26T07:37:48.388Z,20.1
2018-09-26T07:38:39.247Z,20.1
2018-09-26T07:39:28.456Z,20
2018-09-26T07:40:18.352Z,20
2018-09-26T07:41:07.780Z,20
2018-09-26T07:41:58.712Z,20
2018-09-26T07:42:47.349Z,19.9
2018-09-26T07:43:38.310Z,19.9
2018-09-26T07:44:27.940Z,19.9
2018-09-26T07:45:17.661Z,19.9
2018-09-26T07:46:07.238Z,19.9
2018-09-26T07:46:58.615Z,19.9
2018-09-26T07:47:48.251Z,19.9
2018-09-26T07:48:37.721Z,19.9
2018-09-26T07:49:27.946Z,19.8
2018-09-26T07:50:17.470Z,19.8
2018-09-26T07:51:07.873Z,19.8
2018-09-26T07:51:58.038Z,19.8
2018-09-26T07:52:48.135Z,19.8
2018-09-26T07:53:38.125Z,19.8
2018-09-26T07:54:28.074Z,19.8
2018-09-26T07:55:19.079Z,19.8
2018-09-26T07:56:08.688Z,19.8
2018-09-26T07:56:58.420Z,19.8
2018-09-26T07:57:49.338Z,19.7
2018-09-26T07:58:39.178Z,19.7
2018-09-26T07:59:30.048Z,19.7
2018-09-26T08:00:19.541Z,19.7
2018-09-26T08:01:10.132Z,19.7
2018-09-26T08:01:59.628Z,19.7
2018-09-26T08:02:49.465Z,19.7
2018-09-26T08:03:39.718Z,19.7
2018-09-26T08:04:30.702Z,19.7
2018-09-26T08:05:19.843Z,19.7
2018-09-26T08:06:10.921Z,19.7
2018-09-26T08:06:59.955Z,19.7
2018-09-26T08:07:49.862Z,19.7
2018-09-26T08:08:39.344Z,19.7
2018-09-26T08:09:29.124Z,19.7
2018-09-26T08:10:20.301Z,19.7
2018-09-26T08:11:10.515Z,19.7
2018-09-26T08:12:01.351Z,19.8
2018-09-26T08:12:50.967Z,19.8
2018-09-26T08:13:41.051Z,19.8
2018-09-26T08:14:31.613Z,19.8
2018-09-26T08:15:20.339Z,19.8
2018-09-26T08:16:10.679Z,19.8
2018-09-26T08:17:01.277Z,19.8
2018-09-26T08:17:50.741Z,19.9
2018-09-26T08:18:43.115Z,19.9
2018-09-26T08:19:30.897Z,19.9
2018-09-26T08:20:21.549Z,19.9
2018-09-26T08:21:10.834Z,19.9
2018-09-26T08:22:01.494Z,19.9
2018-09-26T08:22:51.256Z,20
2018-09-26T08:23:42.145Z,20
2018-09-26T08:24:32.101Z,20
2018-09-26T08:25:20.521Z,20
2018-09-26T08:26:11.181Z,20
2018-09-26T08:27:02.290Z,20.1
2018-09-26T08:27:51.806Z,20.1
2018-09-26T08:28:41.861Z,20.1
2018-09-26T08:29:31.676Z,20.1
2018-09-26T08:30:22.033Z,20.1
2018-09-26T08:31:12.087Z,20.1
2018-09-26T08:32:02.386Z,20.1
2018-09-26T08:32:52.158Z,20.2
2018-09-26T08:33:42.246Z,20.2
2018-09-26T08:34:32.347Z,20.2
2018-09-26T08:35:22.923Z,20.2
2018-09-26T08:36:12.474Z,20.2
2018-09-26T08:37:02.997Z,20.3
2018-09-26T08:37:52.030Z,20.3
2018-09-26T08:38:42.417Z,20.3
2018-09-26T08:39:33.199Z,20.3
2018-09-26T08:40:23.009Z,20.3
2018-09-26T08:41:13.361Z,20.3
2018-09-26T08:42:02.852Z,20.3
2018-09-26T08:42:52.167Z,20.3
2018-09-26T08:43:42.712Z,20.3
2018-09-26T08:44:33.054Z,20.3
2018-09-26T08:45:23.667Z,20.3
2018-09-26T08:46:13.379Z,20.3
2018-09-26T08:47:03.487Z,20.3
2018-09-26T08:47:53.259Z,20.3
2018-09-26T08:48:43.889Z,20.4
2018-09-26T08:49:33.459Z,20.3
2018-09-26T08:50:23.842Z,20.3
2018-09-26T08:51:13.374Z,20.4
2018-09-26T08:52:02.806Z,20.4
2018-09-26T08:52:53.947Z,20.4
2018-09-26T08:53:44.881Z,20.4
2018-09-26T08:54:34.164Z,20.4
2018-09-26T08:55:24.084Z,20.4
2018-09-26T08:56:14.571Z,20.4
2018-09-26T08:57:03.466Z,20.4
2018-09-26T08:57:54.010Z,20.4
2018-09-26T08:58:44.026Z,20.4
2018-09-26T08:59:34.874Z,20.4
2018-09-26T09:00:24.353Z,20.4
2018-09-26T09:01:13.803Z,20.4
2018-09-26T09:02:03.996Z,20.4
2018-09-26T09:02:53.923Z,20.4
2018-09-26T09:03:44.679Z,20.4
2018-09-26T09:04:35.064Z,20.4
2018-09-26T09:05:25.060Z,20.4
2018-09-26T09:06:15.676Z,20.4
2018-09-26T09:07:04.408Z,20.4
2018-09-26T09:07:55.311Z,20.4
2018-09-26T09:08:44.833Z,20.4
2018-09-26T09:09:35.461Z,20.4
2018-09-26T09:10:25.240Z,20.4
2018-09-26T09:11:15.322Z,20.4
2018-09-26T09:12:04.755Z,20.4
2018-09-26T09:12:54.843Z,20.4
2018-09-26T09:13:45.412Z,20.4
2018-09-26T09:14:39.037Z,20.4
2018-09-26T09:15:26.246Z,20.4
2018-09-26T09:16:15.131Z,20.4
2018-09-26T09:17:05.275Z,20.4
2018-09-26T09:17:55.971Z,20.4
2018-09-26T09:18:45.622Z,20.4
2018-09-26T09:19:35.982Z,20.4
2018-09-26T09:20:26.395Z,20.4
2018-09-26T09:21:15.689Z,20.4
2018-09-26T09:22:05.479Z,20.4
2018-09-26T09:38:53.801Z,20.4
2018-09-26T09:39:43.501Z,20.4
2018-09-26T09:40:33.236Z,20.4
2018-09-26T09:41:23.021Z,20.4
2018-09-26T09:42:12.698Z,20.4
2018-09-26T09:43:03.432Z,20.4
2018-09-26T09:43:54.807Z,20.4
2018-09-26T09:44:44.139Z,20.4
2018-09-26T09:45:33.579Z,20.4
2018-09-26T09:46:23.678Z,20.4
2018-09-26T09:47:13.513Z,20.4
2018-09-26T09:48:04.368Z,20.4
2018-09-26T09:48:54.601Z,20.4
2018-09-26T09:49:43.838Z,20.4
2018-09-26T09:50:33.973Z,20.4
2018-09-26T09:51:24.574Z,20.4
2018-09-26T09:52:14.058Z,20.4
2018-09-26T09:53:04.758Z,20.4
2018-09-26T09:53:54.481Z,20.4
2018-09-26T09:54:44.245Z,20.4
2018-09-26T09:55:34.598Z,20.4
2018-09-26T09:56:25.972Z,20.4
2018-09-26T09:57:14.158Z,20.4
2018-09-26T09:58:04.867Z,20.4
2018-09-26T09:58:54.556Z,20.4
2018-09-26T09:59:44.635Z,20.4
2018-09-26T10:00:34.138Z,20.4
2018-09-26T10:01:25.383Z,20.4
2018-09-26T10:02:16.126Z,20.5
2018-09-26T10:03:07.056Z,20.4
2018-09-26T10:03:56.239Z,20.5
2018-09-26T10:04:45.560Z,20.5
2018-09-26T10:05:34.769Z,20.5
2018-09-26T10:06:25.102Z,20.5
2018-09-26T10:07:15.722Z,20.5
2018-09-26T10:08:05.364Z,20.5
2018-09-26T10:08:55.751Z,20.5
2018-09-26T10:09:45.658Z,20.5
2018-09-26T10:10:35.444Z,20.5
2018-09-26T10:11:25.774Z,20.5
2018-09-26T10:12:15.815Z,20.5
2018-09-26T10:13:05.617Z,20.5
2018-09-26T10:13:55.135Z,20.6
2018-09-26T10:14:46.264Z,20.6
2018-09-26T10:15:36.711Z,20.5
2018-09-26T10:16:26.111Z,20.6
2018-09-26T10:17:15.369Z,20.6
2018-09-26T10:18:06.267Z,20.6
2018-09-26T10:18:56.064Z,20.6
2018-09-26T10:19:45.879Z,20.6
2018-09-26T10:20:36.189Z,20.6
2018-09-26T10:21:26.606Z,20.6
2018-09-26T10:22:16.615Z,20.6
2018-09-26T10:23:06.061Z,20.6
2018-09-26T10:23:56.419Z,20.6
2018-09-26T10:24:47.091Z,20.6
2018-09-26T10:25:37.090Z,20.6
2018-09-26T10:26:28.302Z,20.6
2018-09-26T10:27:17.242Z,20.6
2018-09-26T10:28:06.726Z,20.6
2018-09-26T10:28:57.070Z,20.6
2018-09-26T10:29:47.196Z,20.6
2018-09-26T10:30:36.739Z,20.6
2018-09-26T10:31:27.559Z,20.6
2018-09-26T10:32:17.627Z,20.6
2018-09-26T10:33:07.696Z,20.6
2018-09-26T10:33:57.744Z,20.6
2018-09-26T10:34:46.731Z,20.6
2018-09-26T10:35:37.922Z,20.6
2018-09-26T10:36:27.963Z,20.6
2018-09-26T10:37:17.776Z,20.6
2018-09-26T10:38:07.944Z,20.6
2018-09-26T10:38:58.329Z,20.6
2018-09-26T10:39:47.666Z,20.6
2018-09-26T10:40:37.971Z,20.6
2018-09-26T10:41:28.023Z,20.6
2018-09-26T10:42:18.047Z,20.6
2018-09-26T10:43:07.816Z,20.6
2018-09-26T10:43:58.190Z,20.6
2018-09-26T10:44:48.478Z,20.6
2018-09-26T10:45:38.323Z,20.6
2018-09-26T10:46:28.896Z,20.6
2018-09-26T10:47:18.147Z,20.6
2018-09-26T10:48:08.468Z,20.6
2018-09-26T10:48:58.367Z,20.6
2018-09-26T10:49:48.303Z,20.6
2018-09-26T10:50:38.677Z,20.6
2018-09-26T10:51:28.990Z,20.6
2018-09-26T10:52:19.034Z,20.6
2018-09-26T10:53:08.411Z,20.6
2018-09-26T10:53:58.038Z,20.6
2018-09-26T10:54:48.942Z,20.6
2018-09-26T10:55:39.545Z,20.6
2018-09-26T10:56:29.860Z,20.6
2018-09-26T10:57:18.927Z,20.6
2018-09-26T10:58:09.417Z,20.6
2018-09-26T10:58:59.221Z,20.6
2018-09-26T10:59:49.034Z,20.6
2018-09-26T11:00:39.885Z,20.6
2018-09-26T11:01:29.750Z,20.6
2018-09-26T11:02:21.056Z,20.6
2018-09-26T11:03:09.021Z,20.6
2018-09-26T11:03:59.307Z,20.6
2018-09-26T11:04:50.003Z,20.6
2018-09-26T11:05:39.804Z,20.6
2018-09-26T11:06:30.127Z,20.7
2018-09-26T11:07:19.282Z,20.6
2018-09-26T11:08:10.397Z,20.7
2018-09-26T11:08:59.742Z,20.7
2018-09-26T11:09:49.803Z,20.7
2018-09-26T11:10:39.928Z,20.7
2018-09-26T11:11:29.864Z,20.7
2018-09-26T11:12:20.486Z,20.7
2018-09-26T11:13:10.631Z,20.7
2018-09-26T11:13:59.482Z,20.7
2018-09-26T11:14:49.021Z,20.7
2018-09-26T11:15:40.876Z,20.8
2018-09-26T11:16:31.406Z,20.8
2018-09-26T11:17:20.287Z,20.8
2018-09-26T11:18:11.037Z,20.8
2018-09-26T11:19:01.832Z,20.8
2018-09-26T11:19:51.041Z,20.8
2018-09-26T11:20:41.757Z,20.8
2018-09-26T11:21:30.063Z,20.8
2018-09-26T11:22:21.946Z,20.8
2018-09-26T11:23:11.342Z,20.8
2018-09-26T11:24:01.084Z,20.8
2018-09-26T11:24:51.171Z,20.8
2018-09-26T11:25:41.265Z,20.8
2018-09-26T11:26:32.092Z,20.8
2018-09-26T11:27:21.358Z,20.8
2018-09-26T11:28:11.227Z,20.8
2018-09-26T11:29:01.492Z,20.8
2018-09-26T11:29:51.555Z,20.8
2018-09-26T11:30:41.600Z,20.8
2018-09-26T11:31:31.973Z,20.8
2018-09-26T11:32:23.401Z,20.8
2018-09-26T11:33:12.510Z,20.8
2018-09-26T11:34:02.130Z,20.8
2018-09-26T11:34:51.904Z,20.8
2018-09-26T11:35:41.405Z,20.8
2018-09-26T11:36:32.047Z,20.8
2018-09-26T11:37:22.076Z,20.8
2018-09-26T11:38:13.114Z,20.8
2018-09-26T11:39:02.750Z,20.8
2018-09-26T11:39:52.607Z,20.9
2018-09-26T11:40:42.585Z,20.8
2018-09-26T11:41:32.427Z,20.8
2018-09-26T11:42:22.555Z,20.8
2018-09-26T11:43:12.687Z,20.8
2018-09-26T11:44:02.685Z,20.8
2018-09-26T11:44:54.299Z,20.8
2018-09-26T11:45:42.982Z,20.8
2018-09-26T11:46:33.010Z,20.8
2018-09-26T11:47:21.200Z,20.9
2018-09-26T11:48:12.361Z,20.9
2018-09-26T11:49:02.916Z,20.8
2018-09-26T11:49:52.771Z,20.8
2018-09-26T11:50:42.657Z,20.9
2018-09-26T11:51:32.559Z,20.9
2018-09-26T11:52:23.190Z,20.9
2018-09-26T11:53:13.216Z,20.9
2018-09-26T11:54:03.846Z,20.8
2018-09-26T11:54:52.884Z,20.8
2018-09-26T11:55:42.711Z,20.9
2018-09-26T11:56:33.973Z,20.8
2018-09-26T11:57:22.784Z,20.9
2018-09-26T11:58:14.145Z,20.8
2018-09-26T11:59:03.167Z,20.8
2018-09-26T11:59:53.394Z,20.8
2018-09-26T12:00:43.506Z,20.9
2018-09-26T12:01:33.943Z,20.9
2018-09-26T12:02:25.210Z,20.9
2018-09-26T12:03:13.981Z,20.9
2018-09-26T12:04:03.870Z,20.9
2018-09-26T12:04:53.256Z,20.9
2018-09-26T12:05:43.139Z,20.9
2018-09-26T12:06:33.098Z,20.9
2018-09-26T12:07:25.026Z,20.9
2018-09-26T12:08:15.028Z,20.9
2018-09-26T12:09:04.847Z,20.9
2018-09-26T12:09:54.140Z,20.9
2018-09-26T12:10:44.540Z,20.9
2018-09-26T12:11:34.310Z,20.9
2018-09-26T12:12:26.489Z,20.8
2018-09-26T12:13:14.415Z,20.8
2018-09-26T12:14:05.229Z,20.8
2018-09-26T12:14:53.807Z,20.8